Northsea Beta — 9HA2594 — position and weather

sailwx.info

Track history (hours):
 
Tides and Currents Weather Stations Pressure Air Temp Water Temp Dewpoint Dewpoint Depression Visibility Wind Speed Wind Dir Waves Ship Positions

Northsea Beta

Last reported at 2016-Jun-27 14:32 UTC. Time now 2016-Jun-27 15:06 UTC.
Position N 37°57' W 008°53'.

Length 110 m; draft 5.5 m.

Type: Tanker. MMSI: 248970000.

Date/timePositionNaut miles runAvg speedWind from/ knotsBaromVisibWave heightAir tempDewpointWater temp
2016-Jun-27 14:32N 37°57' W 008°53'0 0.0
2016-Jun-27 13:32N 37°57' W 008°53'1 0.6
2016-Jun-27 12:33N 37°56' W 008°53'1211.3
2016-Jun-27 11:32N 37°45' W 008°55'  
2016-Jun-25 04:33N 29°34' W 012°39'9 8.9
2016-Jun-25 03:33N 29°26' W 012°43'10 9.1
2016-Jun-25 02:30N 29°17' W 012°48'19 9.8
2016-Jun-25 00:33N 28°60' W 012°57'10 9.9
2016-Jun-24 23:32N 28°50' W 013°02'10 9.7
2016-Jun-24 22:33N 28°42' W 013°07'10 9.7
2016-Jun-24 21:33N 28°33' W 013°11'11 9.8
2016-Jun-24 20:25N 28°23' W 013°17'  
2016-Jun-21 18:30N 27°06' W 013°28'0 0.0
2016-Jun-21 17:30N 27°06' W 013°28'0 0.0
2016-Jun-21 16:30N 27°06' W 013°28'0 0.0
2016-Jun-21 15:27N 27°06' W 013°28'0 0.0
2016-Jun-21 13:06N 27°06' W 013°28'  
Track history (hours):
 
Tides and Currents Weather Stations Pressure Air Temp Water Temp Dewpoint Dewpoint Depression Visibility Wind Speed Wind Dir Waves Ship Positions

Northsea Beta

Last reported at 2016-Jun-27 14:32 UTC. Time now 2016-Jun-27 15:06 UTC.
Position N 37°57' W 008°53'.

Length 110 m; draft 5.5 m.

Type: Tanker. MMSI: 248970000.

Date/timePositionNaut miles runAvg speedWind from/ knotsBaromVisibWave heightAir tempDewpointWater temp
2016-Jun-27 14:32N 37°57' W 008°53'0 0.0
2016-Jun-27 13:32N 37°57' W 008°53'1 0.6
2016-Jun-27 12:33N 37°56' W 008°53'1211.3
2016-Jun-27 11:32N 37°45' W 008°55'  
2016-Jun-25 04:33N 29°34' W 012°39'9 8.9
2016-Jun-25 03:33N 29°26' W 012°43'10 9.1
2016-Jun-25 02:30N 29°17' W 012°48'19 9.8
2016-Jun-25 00:33N 28°60' W 012°57'10 9.9
2016-Jun-24 23:32N 28°50' W 013°02'10 9.7
2016-Jun-24 22:33N 28°42' W 013°07'10 9.7
2016-Jun-24 21:33N 28°33' W 013°11'11 9.8
2016-Jun-24 20:25N 28°23' W 013°17'  
2016-Jun-21 18:30N 27°06' W 013°28'0 0.0
2016-Jun-21 17:30N 27°06' W 013°28'0 0.0
2016-Jun-21 16:30N 27°06' W 013°28'0 0.0
2016-Jun-21 15:27N 27°06' W 013°28'0 0.0
2016-Jun-21 13:06N 27°06' W 013°28'  

Dump ship's entire track history